Time;durP1;ratioP1;P1;durP2;ratioP2;P2;SDS_P1;SDS_P2;PMS_P1;PMS_P2;Temp;Humidity;BMP_temperature;BMP_pressure;BME280_temperature;BME280_humidity;BME280_pressure;Samples;Min_cycle;Max_cycle;Signal;HPM_P1;HPM_P2
2021/12/12 00:01:15;;;;;;;77.27;37.88;;;;;;;0.33;84.04;101110.75;3641603;75;26152;-74
2021/12/12 00:06:15;;;;;;;79.53;39.10;;;;;;;0.35;84.52;101109.18;3678055;75;20962;-74
2021/12/12 00:11:10;;;;;;;68.65;37.10;;;;;;;0.38;84.64;101118.74;3639125;75;21471;-74
2021/12/12 00:16:02;;;;;;;67.97;37.20;;;;;;;0.38;84.58;101118.34;3649235;75;22028;-74
2021/12/12 00:20:55;;;;;;;78.95;37.78;;;;;;;0.38;84.54;101109.39;3618531;75;22440;-74
2021/12/12 00:25:51;;;;;;;86.65;40.48;;;;;;;0.34;84.52;101112.55;3692116;75;21455;-75
2021/12/12 00:30:44;;;;;;;62.17;33.95;;;;;;;0.36;84.67;101124.16;3646774;75;21430;-75
2021/12/12 00:35:36;;;;;;;68.57;36.65;;;;;;;0.29;84.04;101122.87;3590221;75;21356;-74
2021/12/12 00:40:35;;;;;;;64.70;34.33;;;;;;;0.19;84.07;101132.00;3590870;75;21530;-75
2021/12/12 00:45:28;;;;;;;74.87;38.65;;;;;;;0.14;84.32;101139.75;3704619;75;21950;-75
2021/12/12 00:50:34;;;;;;;80.28;41.05;;;;;;;0.15;84.52;101135.15;3620761;75;20963;-75
2021/12/12 00:55:25;;;;;;;81.28;41.85;;;;;;;0.15;84.61;101143.70;3650301;75;20899;-74
2021/12/12 01:00:21;;;;;;;80.35;42.95;;;;;;;0.14;84.39;101141.03;3618544;77;21484;-75
2021/12/12 01:05:14;;;;;;;86.10;41.25;;;;;;;0.13;84.47;101138.87;3634619;75;21398;-75
2021/12/12 01:10:10;;;;;;;72.17;39.50;;;;;;;0.15;84.32;101148.81;3687059;75;21648;-76
2021/12/12 01:15:16;;;;;;;82.27;40.40;;;;;;;0.11;84.46;101149.80;3722212;75;21450;-75
2021/12/12 01:20:28;;;;;;;75.05;40.67;;;;;;;0.11;84.41;101139.18;3680725;75;21069;-76
2021/12/12 01:25:27;;;;;;;75.75;40.00;;;;;;;0.07;84.23;101146.53;3700609;76;21077;-75
2021/12/12 01:30:21;;;;;;;80.80;41.60;;;;;;;0.07;84.37;101147.81;3707777;75;20895;-76
2021/12/12 01:35:16;;;;;;;83.65;45.20;;;;;;;-0.02;83.98;101146.44;3661124;75;22027;-76
2021/12/12 01:40:16;;;;;;;83.22;39.53;;;;;;;-0.07;84.05;101143.97;3629701;75;21041;-76
2021/12/12 01:45:27;;;;;;;81.53;41.28;;;;;;;-0.10;84.02;101146.30;3679711;75;21415;-75
2021/12/12 01:50:30;;;;;;;75.17;41.18;;;;;;;-0.17;83.94;101150.91;3701857;75;20918;-75
2021/12/12 01:55:26;;;;;;;68.92;32.05;;;;;;;-0.22;84.04;101145.48;3711994;75;21542;-74
2021/12/12 02:00:29;;;;;;;75.53;43.33;;;;;;;-0.29;83.82;101150.56;3655748;77;21233;-75
2021/12/12 02:05:21;;;;;;;73.45;40.30;;;;;;;-0.41;83.49;101151.92;3723734;75;21001;-74
2021/12/12 02:10:18;;;;;;;87.50;46.18;;;;;;;-0.47;83.79;101156.59;3688521;75;20977;-75
2021/12/12 02:15:12;;;;;;;77.37;43.03;;;;;;;-0.47;84.01;101158.27;3656374;75;20947;-75
2021/12/12 02:20:23;;;;;;;83.62;42.03;;;;;;;-0.46;83.86;101146.88;3604482;76;20932;-75
2021/12/12 02:35:26;;;;;;;73.52;39.35;;;;;;;-0.59;83.29;101164.69;3613234;76;21465;-75
2021/12/12 02:40:20;;;;;;;84.80;45.67;;;;;;;-0.79;83.20;101166.78;3669022;76;21035;-74
2021/12/12 02:45:15;;;;;;;86.80;43.77;;;;;;;-0.73;83.99;101171.78;3687843;76;20915;-75
2021/12/12 02:50:14;;;;;;;84.92;44.13;;;;;;;-0.74;83.48;101181.12;3637201;76;21444;-75
2021/12/12 02:55:11;;;;;;;89.07;45.43;;;;;;;-0.80;83.37;101176.48;3633719;76;21031;-75
2021/12/12 03:00:07;;;;;;;80.53;43.23;;;;;;;-0.81;83.78;101172.14;3615601;76;20948;-76
2021/12/12 03:05:04;;;;;;;81.32;41.33;;;;;;;-0.79;83.61;101176.98;3665447;76;21011;-75
2021/12/12 03:09:57;;;;;;;92.42;43.73;;;;;;;-0.81;83.41;101174.69;3602776;76;21203;-75
2021/12/12 03:14:51;;;;;;;84.60;42.35;;;;;;;-0.79;83.70;101185.92;3658332;76;21155;-74
2021/12/12 03:19:51;;;;;;;74.47;40.55;;;;;;;-0.82;83.44;101193.36;3569885;76;33727;-75
2021/12/12 03:24:43;;;;;;;83.67;43.42;;;;;;;-0.88;83.31;101182.70;3576165;78;20927;-75
2021/12/12 03:29:37;;;;;;;78.30;41.02;;;;;;;-0.92;83.28;101196.04;3591640;78;20950;-75
2021/12/12 03:34:34;;;;;;;64.15;35.05;;;;;;;-0.94;83.32;101192.50;3606822;78;20915;-75
2021/12/12 03:39:30;;;;;;;67.37;35.73;;;;;;;-0.99;82.94;101198.94;3600306;78;21119;-75
2021/12/12 03:44:25;;;;;;;75.70;39.33;;;;;;;-1.07;82.90;101208.97;3630258;77;20962;-75
2021/12/12 03:49:17;;;;;;;70.90;36.70;;;;;;;-1.11;83.21;101218.47;3656598;78;20946;-74
2021/12/12 03:54:08;;;;;;;58.55;32.80;;;;;;;-1.12;83.22;101214.17;3567739;78;21431;-75
2021/12/12 03:59:00;;;;;;;45.65;24.35;;;;;;;-1.11;83.16;101219.35;3654409;77;20903;-75
2021/12/12 04:03:56;;;;;;;70.78;37.13;;;;;;;-1.13;83.04;101230.24;3613051;78;21287;-75
2021/12/12 04:08:50;;;;;;;70.57;37.80;;;;;;;-1.21;83.21;101224.20;3630763;77;20986;-75
2021/12/12 04:13:45;;;;;;;76.95;36.98;;;;;;;-1.15;83.39;101224.63;3605067;76;20965;-75
2021/12/12 04:18:38;;;;;;;71.07;36.28;;;;;;;-1.09;83.37;101218.19;3575267;76;20997;-75
2021/12/12 04:23:31;;;;;;;74.80;37.33;;;;;;;-1.16;83.05;101239.85;3588870;77;20941;-75
2021/12/12 04:28:23;;;;;;;64.15;33.35;;;;;;;-1.16;83.21;101243.28;3601901;77;21356;-75
2021/12/12 04:33:14;;;;;;;47.05;25.48;;;;;;;-1.15;83.12;101251.42;3647741;77;21525;-75
2021/12/12 04:38:06;;;;;;;61.15;32.65;;;;;;;-1.18;82.82;101255.05;3617918;77;20905;-75
2021/12/12 04:42:58;;;;;;;68.83;33.95;;;;;;;-1.21;83.14;101256.49;3612112;77;20945;-75
2021/12/12 04:53:43;;;;;;;59.63;30.92;;;;;;;-1.20;83.08;101262.08;3643682;77;21930;-75
2021/12/12 04:59:05;;;;;;;71.10;35.65;;;;;;;-1.27;82.62;101273.52;3558504;77;21554;-75
2021/12/12 05:04:05;;;;;;;66.07;33.02;;;;;;;-1.35;82.84;101287.36;3651327;77;20960;-74
2021/12/12 05:09:10;;;;;;;56.45;30.97;;;;;;;-1.33;83.22;101310.05;3595038;77;20928;-74
2021/12/12 05:14:07;;;;;;;51.42;29.32;;;;;;;-1.31;83.12;101323.80;3625937;77;21411;-75
2021/12/12 05:19:05;;;;;;;54.30;27.50;;;;;;;-1.39;82.72;101323.64;3627395;77;21199;-74
2021/12/12 05:24:00;;;;;;;62.48;31.45;;;;;;;-1.50;82.55;101347.42;3646708;76;20945;-74
2021/12/12 05:29:09;;;;;;;58.40;29.07;;;;;;;-1.60;82.90;101343.30;3603363;76;20936;-74
2021/12/12 05:34:02;;;;;;;59.27;26.97;;;;;;;-1.52;83.30;101334.95;3658343;76;20952;-74
2021/12/12 05:38:59;;;;;;;52.65;25.32;;;;;;;-1.51;83.03;101345.67;3608928;76;21179;-74
2021/12/12 05:43:54;;;;;;;61.25;27.42;;;;;;;-1.55;83.08;101339.45;3597417;76;21769;-73
2021/12/12 05:48:47;;;;;;;46.77;23.07;;;;;;;-1.51;83.29;101340.56;3685469;76;21422;-74
2021/12/12 05:53:39;;;;;;;52.60;27.42;;;;;;;-1.56;82.88;101337.29;3630985;76;21003;-74
2021/12/12 05:58:30;;;;;;;52.15;26.55;;;;;;;-1.55;83.11;101336.89;3586932;76;20944;-74
2021/12/12 06:03:26;;;;;;;55.52;27.80;;;;;;;-1.45;83.41;101333.36;3635533;76;20940;-74
2021/12/12 06:08:21;;;;;;;53.80;28.83;;;;;;;-1.44;83.16;101335.16;3628717;76;20913;-74
2021/12/12 06:13:16;;;;;;;52.83;26.17;;;;;;;-1.43;83.16;101350.94;3676572;76;21824;-74
2021/12/12 06:18:08;;;;;;;56.23;27.30;;;;;;;-1.38;83.23;101350.91;3633442;76;21477;-74
2021/12/12 06:23:00;;;;;;;56.37;27.42;;;;;;;-1.38;83.33;101356.00;3587566;77;20968;-74
2021/12/12 06:27:53;;;;;;;54.35;27.42;;;;;;;-1.35;83.36;101356.24;3669953;76;20969;-75
2021/12/12 06:32:46;;;;;;;53.02;27.75;;;;;;;-1.33;83.21;101347.44;3642009;76;21396;-74
2021/12/12 06:37:38;;;;;;;51.70;25.95;;;;;;;-1.33;83.37;101362.34;3625682;77;20970;-74
2021/12/12 06:42:30;;;;;;;54.83;28.10;;;;;;;-1.30;83.23;101360.03;3646942;75;21440;-74
2021/12/12 06:47:22;;;;;;;47.62;25.23;;;;;;;-1.29;83.29;101357.97;3599402;77;20927;-75
2021/12/12 06:52:15;;;;;;;59.73;30.85;;;;;;;-1.31;83.16;101365.89;3649346;77;21334;-74
2021/12/12 06:57:11;;;;;;;58.70;30.55;;;;;;;-1.31;83.34;101367.17;3669747;77;21900;-74
2021/12/12 07:02:05;;;;;;;56.35;28.42;;;;;;;-1.26;83.47;101368.80;3657042;77;21543;-74
2021/12/12 07:07:00;;;;;;;55.60;27.90;;;;;;;-1.22;83.38;101379.34;3671690;76;21002;-75
2021/12/12 07:11:54;;;;;;;55.73;27.07;;;;;;;-1.21;83.23;101385.35;3661131;75;20974;-74
2021/12/12 07:16:46;;;;;;;59.85;29.67;;;;;;;-1.21;83.15;101379.85;3612847;75;20914;-74
2021/12/12 07:21:38;;;;;;;58.40;28.67;;;;;;;-1.19;83.39;101385.08;3615071;76;21005;-74
2021/12/12 07:26:30;;;;;;;56.10;29.70;;;;;;;-1.14;83.38;101383.76;3681891;75;21005;-74
2021/12/12 07:31:27;;;;;;;61.68;31.07;;;;;;;-1.11;83.20;101393.30;3612069;75;21511;-74
2021/12/12 07:36:20;;;;;;;61.75;32.73;;;;;;;-1.09;83.21;101400.67;3711259;75;28289;-75
2021/12/12 07:41:14;;;;;;;63.52;33.18;;;;;;;-1.06;83.25;101412.00;3635568;77;20955;-74
2021/12/12 07:46:06;;;;;;;71.72;33.78;;;;;;;-1.03;83.22;101409.69;3580036;75;21057;-75
2021/12/12 07:50:57;;;;;;;66.87;34.18;;;;;;;-1.04;83.14;101416.86;3689029;75;20931;-74
2021/12/12 07:55:49;;;;;;;63.25;31.33;;;;;;;-0.98;83.32;101424.08;3642515;75;20963;-75
2021/12/12 08:00:45;;;;;;;70.67;34.85;;;;;;;-0.95;83.13;101433.22;3700450;75;21443;-74
2021/12/12 08:05:38;;;;;;;70.28;34.20;;;;;;;-0.92;83.29;101438.56;3682279;75;20941;-75
2021/12/12 08:10:30;;;;;;;76.70;33.95;;;;;;;-0.86;83.32;101445.42;3660463;75;21471;-74
2021/12/12 08:15:22;;;;;;;71.75;35.58;;;;;;;-0.82;83.19;101450.37;3665500;75;22001;-75
2021/12/12 08:20:16;;;;;;;75.20;33.63;;;;;;;-0.81;83.37;101450.45;3656744;75;21014;-75
2021/12/12 08:25:12;;;;;;;58.15;28.20;;;;;;;-0.73;83.17;101450.13;3704600;75;20993;-75
2021/12/12 08:30:06;;;;;;;75.57;36.77;;;;;;;-0.68;83.05;101448.81;3605806;75;21482;-74
2021/12/12 08:34:58;;;;;;;78.55;35.63;;;;;;;-0.73;82.93;101452.69;3648661;75;21173;-74
2021/12/12 08:39:50;;;;;;;71.30;32.53;;;;;;;-0.65;82.94;101443.94;3686493;76;20958;-74
2021/12/12 08:44:42;;;;;;;76.07;37.80;;;;;;;-0.60;82.79;101448.61;3642232;75;21411;-74
2021/12/12 08:49:38;;;;;;;71.15;33.65;;;;;;;-0.50;83.19;101447.63;3598576;75;20966;-74
2021/12/12 08:54:31;;;;;;;66.50;34.50;;;;;;;-0.46;82.95;101444.52;3647812;75;21571;-74
2021/12/12 08:59:26;;;;;;;72.78;36.00;;;;;;;-0.39;83.10;101435.23;3583372;76;21089;-73
2021/12/12 09:04:18;;;;;;;78.25;39.58;;;;;;;-0.36;82.98;101443.90;3653863;75;20954;-74
2021/12/12 09:09:20;;;;;;;78.70;37.90;;;;;;;-0.39;82.74;101439.07;3656348;75;21481;-75
2021/12/12 09:14:44;;;;;;;68.22;36.25;;;;;;;-0.37;83.20;101435.75;3704714;75;20955;-74
2021/12/12 09:19:46;;;;;;;70.55;36.23;;;;;;;-0.41;83.03;101434.25;3702813;75;20927;-75
2021/12/12 09:25:03;;;;;;;71.75;36.42;;;;;;;-0.46;83.05;101426.63;3681681;75;21016;-75
2021/12/12 09:29:59;;;;;;;54.40;27.75;;;;;;;-0.50;83.03;101442.89;3667798;74;21465;-75
2021/12/12 09:35:02;;;;;;;75.47;36.38;;;;;;;-0.56;82.76;101444.61;3676148;75;20954;-74
2021/12/12 09:40:01;;;;;;;87.85;42.30;;;;;;;-0.61;82.87;101448.13;3679124;75;20965;-74
2021/12/12 09:45:19;;;;;;;95.80;45.70;;;;;;;-0.60;83.03;101436.23;3678698;75;20889;-75
2021/12/12 09:56:24;;;;;;;109.70;55.08;;;;;;;-0.68;83.02;101438.59;3455759;81;20977;-74
2021/12/12 10:01:38;;;;;;;116.70;54.48;;;;;;;-0.61;83.10;101440.83;3414989;81;21368;-74
2021/12/12 10:06:59;;;;;;;127.00;60.33;;;;;;;-0.56;82.84;101442.05;3445888;81;21031;-73
2021/12/12 10:12:16;;;;;;;152.43;69.17;;;;;;;-0.52;82.74;101441.52;3430937;80;21479;-74
2021/12/12 10:17:19;;;;;;;141.03;66.85;;;;;;;-0.49;82.86;101444.28;3415528;81;21022;-74
2021/12/12 10:23:08;;;;;;;170.68;77.80;;;;;;;-0.50;82.51;101434.86;3423016;80;20970;-74
2021/12/12 10:28:08;;;;;;;140.52;65.32;;;;;;;-0.50;82.64;101429.75;3621153;76;22118;-74
2021/12/12 10:33:24;;;;;;;164.50;76.57;;;;;;;-0.49;82.42;101431.51;3671549;77;20947;-73
2021/12/12 10:38:21;;;;;;;164.07;72.80;;;;;;;-0.57;82.13;101430.08;3613555;77;20974;-73
2021/12/12 10:43:22;;;;;;;143.53;65.83;;;;;;;-0.56;82.06;101416.91;3640627;77;22024;-74
2021/12/12 10:48:15;;;;;;;171.05;78.50;;;;;;;-0.52;82.33;101414.70;3628352;77;20906;-74
2021/12/12 10:53:31;;;;;;;164.25;73.12;;;;;;;-0.47;82.52;101415.90;3611189;77;20910;-74
2021/12/12 10:58:52;;;;;;;146.75;69.30;;;;;;;-0.42;82.37;101422.63;3641270;77;21033;-74
2021/12/12 11:04:12;;;;;;;169.37;73.67;;;;;;;-0.43;82.12;101416.64;3630679;78;20935;-74
2021/12/12 11:09:09;;;;;;;151.72;67.90;;;;;;;-0.45;82.02;101418.20;3647079;77;21937;-75
2021/12/12 11:14:20;;;;;;;160.37;72.20;;;;;;;-0.46;82.03;101406.59;3601777;76;20923;-74
2021/12/12 11:19:20;;;;;;;156.45;71.65;;;;;;;-0.43;82.13;101405.14;3628518;77;21610;-74
2021/12/12 11:24:28;;;;;;;160.93;72.97;;;;;;;-0.41;82.23;101417.63;3714096;74;20911;-74
2021/12/12 11:29:25;;;;;;;148.97;71.50;;;;;;;-0.52;81.58;101408.31;3674690;76;20971;-74
2021/12/12 11:34:18;;;;;;;130.77;58.27;;;;;;;-0.54;81.88;101414.07;3669138;74;20932;-74
2021/12/12 11:39:27;;;;;;;150.03;69.12;;;;;;;-0.67;81.13;101419.95;3702001;75;20968;-74
2021/12/12 11:44:34;;;;;;;117.17;56.18;;;;;;;-0.74;81.59;101420.28;3679652;75;20942;-73
2021/12/12 11:49:34;;;;;;;150.53;72.90;;;;;;;-0.73;81.75;101411.83;3688650;75;20992;-74
2021/12/12 11:54:49;;;;;;;140.12;67.62;;;;;;;-0.79;81.93;101418.29;3664387;75;20893;-74
2021/12/12 12:00:05;;;;;;;131.37;62.95;;;;;;;-0.77;82.07;101433.33;3647061;75;22703;-74
2021/12/12 12:05:12;;;;;;;117.35;53.48;;;;;;;-0.80;81.90;101431.81;3692835;75;20943;-74
2021/12/12 12:10:21;;;;;;;112.52;53.65;;;;;;;-0.85;81.54;101428.03;3715764;75;20927;-74
2021/12/12 12:15:39;;;;;;;107.83;53.75;;;;;;;-0.97;81.77;101427.12;3668005;76;21420;-74
2021/12/12 12:20:44;;;;;;;117.03;56.85;;;;;;;-0.99;81.61;101438.88;3691312;75;21484;-74
2021/12/12 12:31:43;;;;;;;112.72;58.02;;;;;;;-1.04;81.90;101430.90;3686910;75;20934;-74
2021/12/12 12:37:30;;;;;;;104.65;50.83;;;;;;;-1.07;81.88;101423.36;3650612;75;20923;-74
2021/12/12 12:43:01;;;;;;;99.92;49.45;;;;;;;-1.13;81.56;101424.20;3699864;75;20934;-74
2021/12/12 12:48:47;;;;;;;109.85;54.53;;;;;;;-1.18;81.81;101414.54;3602404;75;20977;-74
2021/12/12 12:54:20;;;;;;;108.90;49.40;;;;;;;-1.18;81.84;101419.64;3640418;75;21669;-74
2021/12/12 12:59:51;;;;;;;107.00;53.33;;;;;;;-1.09;82.02;101419.45;3690241;74;21014;-74
2021/12/12 13:05:16;;;;;;;99.03;45.78;;;;;;;-1.15;81.76;101407.09;3605555;75;20954;-73
2021/12/12 13:10:19;;;;;;;115.42;52.03;;;;;;;-1.22;81.54;101413.78;3689870;75;21127;-73
2021/12/12 13:15:42;;;;;;;105.97;48.70;;;;;;;-1.30;81.85;101418.72;3669302;75;21523;-73
2021/12/12 13:20:48;;;;;;;116.10;52.98;;;;;;;-1.36;81.97;101418.23;3666616;75;21988;-73
2021/12/12 13:25:54;;;;;;;110.83;48.95;;;;;;;-1.35;81.99;101413.64;3693596;76;20985;-74
2021/12/12 13:31:16;;;;;;;104.15;48.08;;;;;;;-1.39;81.84;101412.92;3605806;78;20990;-74
2021/12/12 13:36:45;;;;;;;105.22;47.93;;;;;;;-1.44;81.82;101407.85;3627421;78;21533;-73
2021/12/12 13:42:21;;;;;;;96.42;46.70;;;;;;;-1.44;81.95;101415.11;3554060;78;22316;-73
2021/12/12 13:47:20;;;;;;;105.75;48.92;;;;;;;-1.43;82.02;101421.09;3607113;78;21030;-74
2021/12/12 13:52:29;;;;;;;105.90;49.10;;;;;;;-1.45;82.23;101421.36;3609157;78;20975;-74
2021/12/12 13:57:35;;;;;;;106.78;50.28;;;;;;;-1.44;82.10;101430.41;3587565;78;21429;-73
2021/12/12 14:02:27;;;;;;;116.33;50.12;;;;;;;-1.48;82.08;101417.33;3548434;78;20970;-73
2021/12/12 14:07:36;;;;;;;94.15;45.08;;;;;;;-1.47;82.32;101426.34;3601878;76;20960;-73
2021/12/12 14:12:31;;;;;;;112.25;48.52;;;;;;;-1.53;81.97;101436.09;3647741;76;21188;-74
2021/12/12 14:17:34;;;;;;;99.10;43.23;;;;;;;-1.56;82.24;101432.02;3662036;76;21544;-73
2021/12/12 14:22:25;;;;;;;104.85;47.75;;;;;;;-1.58;82.06;101431.89;3656873;75;21036;-74
2021/12/12 14:27:20;;;;;;;103.12;47.20;;;;;;;-1.59;82.35;101432.69;3682850;75;20907;-73
2021/12/12 14:32:15;;;;;;;104.75;48.40;;;;;;;-1.54;82.37;101439.39;3616034;76;20994;-72
2021/12/12 14:37:12;;;;;;;95.50;46.45;;;;;;;-1.59;82.20;101430.13;3674310;75;21191;-73
2021/12/12 14:42:35;;;;;;;87.50;44.83;;;;;;;-1.58;82.49;101430.63;3595427;75;20993;-73
2021/12/12 14:47:24;;;;;;;109.37;51.75;;;;;;;-1.63;82.08;101443.39;3649595;75;21542;-73
2021/12/12 14:52:31;;;;;;;108.03;51.45;;;;;;;-1.67;82.27;101449.04;3644725;75;20983;-73
2021/12/12 14:57:30;;;;;;;;;;;;;;;-1.64;82.61;101450.95;3703268;75;21579;-73
2021/12/12 15:02:48;;;;;;;101.67;46.60;;;;;;;-1.67;82.48;101451.59;3681974;75;21244;-73
2021/12/12 15:07:44;;;;;;;103.22;44.73;;;;;;;-1.64;82.58;101456.94;3632452;75;21085;-73
2021/12/12 15:12:49;;;;;;;99.28;44.05;;;;;;;-1.63;82.55;101452.72;3621400;76;20884;-75
2021/12/12 15:17:51;;;;;;;107.78;48.55;;;;;;;-1.63;82.50;101457.42;3680983;75;20919;-74
2021/12/12 15:22:50;;;;;;;103.67;48.55;;;;;;;-1.64;82.60;101459.48;3684768;75;20954;-73
2021/12/12 15:27:47;;;;;;;117.55;49.15;;;;;;;-1.63;82.69;101456.14;3659300;76;21165;-73
2021/12/12 15:32:49;;;;;;;92.45;44.70;;;;;;;-1.64;82.60;101456.94;3654090;75;20962;-73
2021/12/12 15:37:43;;;;;;;112.08;50.75;;;;;;;-1.70;82.37;101462.81;3667375;75;20958;-73
2021/12/12 15:42:38;;;;;;;107.52;48.28;;;;;;;-1.71;82.66;101468.70;3616477;75;21236;-73
2021/12/12 15:47:35;;;;;;;103.30;47.17;;;;;;;-1.69;82.66;101470.98;3623387;74;21257;-73
2021/12/12 15:52:31;;;;;;;112.90;49.07;;;;;;;-1.62;82.92;101463.04;3647686;75;21167;-73
2021/12/12 15:57:30;;;;;;;102.53;47.70;;;;;;;-1.63;82.58;101465.47;3636272;75;23584;-73
2021/12/12 16:02:27;;;;;;;123.58;53.95;;;;;;;-1.65;82.68;101463.19;3665192;75;20966;-73
2021/12/12 16:07:21;;;;;;;127.12;51.83;;;;;;;-1.66;82.75;101455.93;3701829;75;21475;-73
2021/12/12 16:12:19;;;;;;;128.25;57.05;;;;;;;-1.65;82.81;101450.05;3637402;75;20949;-74
2021/12/12 16:17:21;;;;;;;120.72;55.03;;;;;;;-1.63;82.78;101456.14;3664312;76;21303;-74
2021/12/12 16:22:17;;;;;;;118.67;51.90;;;;;;;-1.64;82.75;101454.39;3679002;75;21013;-73
2021/12/12 16:27:14;;;;;;;128.60;53.10;;;;;;;-1.62;82.95;101465.59;3624000;76;21008;-74
2021/12/12 16:32:07;;;;;;;122.13;55.77;;;;;;;-1.58;82.88;101473.09;3637090;76;21426;-73
2021/12/12 16:37:12;;;;;;;121.53;54.15;;;;;;;-1.59;82.91;101474.77;3627317;76;21681;-73
2021/12/12 16:42:09;;;;;;;104.92;48.90;;;;;;;-1.59;82.84;101478.59;3616056;76;20989;-74
2021/12/12 16:47:05;;;;;;;108.27;50.00;;;;;;;-1.58;82.89;101463.77;3662782;76;20948;-73
2021/12/12 16:52:08;;;;;;;106.17;49.35;;;;;;;-1.60;82.74;101460.22;3531567;78;20932;-73
2021/12/12 16:57:04;;;;;;;121.97;50.12;;;;;;;-1.63;82.85;101457.81;3552336;78;20962;-74
2021/12/12 17:01:59;;;;;;;108.03;48.73;;;;;;;-1.60;82.84;101464.05;3552229;78;21420;-74
2021/12/12 17:06:55;;;;;;;113.28;51.05;;;;;;;-1.60;82.81;101469.14;3551505;79;21798;-74
2021/12/12 17:12:12;;;;;;;109.13;50.70;;;;;;;-1.60;82.88;101469.14;3499056;79;20965;-73
2021/12/12 17:17:04;;;;;;;113.77;51.18;;;;;;;-1.55;83.03;101460.20;3522309;79;20955;-73
2021/12/12 17:21:58;;;;;;;113.65;49.75;;;;;;;-1.54;82.82;101474.74;3527244;77;20965;-74
2021/12/12 17:26:53;;;;;;;93.20;44.08;;;;;;;-1.56;82.85;101483.94;3553174;78;20915;-74
2021/12/12 17:31:44;;;;;;;114.60;50.73;;;;;;;-1.58;82.70;101474.37;3554573;78;21069;-74
2021/12/12 17:36:40;;;;;;;117.05;49.40;;;;;;;-1.60;82.74;101467.87;3500578;78;20962;-74
2021/12/12 17:41:44;;;;;;;120.05;49.70;;;;;;;-1.61;82.70;101460.09;3553409;78;20967;-74
2021/12/12 17:47:08;;;;;;;118.37;52.90;;;;;;;-1.57;83.03;101468.12;3511759;79;21573;-74
2021/12/12 17:52:42;;;;;;;120.67;52.62;;;;;;;-1.56;82.91;101466.09;3559810;78;20974;-73
2021/12/12 17:57:44;;;;;;;108.47;49.38;;;;;;;-1.54;83.05;101465.81;3571909;78;21022;-73
2021/12/12 18:02:38;;;;;;;97.53;45.67;;;;;;;-1.54;82.81;101459.80;3514291;78;20969;-73
2021/12/12 18:08:13;;;;;;;96.60;44.98;;;;;;;-1.59;82.69;101459.83;3584102;77;20946;-73
2021/12/12 18:13:16;;;;;;;105.17;47.73;;;;;;;-1.61;82.74;101446.98;3541301;78;20915;-73
2021/12/12 18:18:33;;;;;;;98.35;44.63;;;;;;;-1.63;82.87;101454.88;3572142;78;20928;-74
2021/12/12 18:23:30;;;;;;;104.80;47.43;;;;;;;-1.62;82.88;101450.69;3535888;78;21310;-73
2021/12/12 18:28:36;;;;;;;106.05;45.75;;;;;;;-1.68;82.65;101449.83;3615234;77;21486;-73
2021/12/12 18:33:35;;;;;;;105.72;43.28;;;;;;;-1.70;82.97;101450.06;3548825;78;22097;-73
2021/12/12 18:38:38;;;;;;;99.67;47.13;;;;;;;-1.69;82.82;101450.58;3533864;79;20978;-73
2021/12/12 18:43:37;;;;;;;102.05;46.65;;;;;;;-1.70;82.90;101456.44;3540943;78;20926;-73
2021/12/12 18:48:30;;;;;;;92.35;44.65;;;;;;;-1.69;82.98;101456.08;3553115;79;21061;-73
2021/12/12 18:53:29;;;;;;;83.50;39.50;;;;;;;-1.72;82.91;101468.19;3522149;79;20906;-74
2021/12/12 18:58:25;;;;;;;104.25;45.90;;;;;;;-1.76;82.70;101464.90;3523780;79;20942;-73
2021/12/12 19:03:22;;;;;;;103.97;44.55;;;;;;;-1.74;83.13;101463.36;3550964;78;21753;-72
2021/12/12 19:08:22;;;;;;;93.25;42.80;;;;;;;-1.70;83.09;101466.64;3520845;78;21075;-73
2021/12/12 19:13:15;;;;;;;100.40;42.50;;;;;;;-1.66;83.02;101471.23;3561073;78;22030;-73
2021/12/12 19:18:12;;;;;;;88.17;38.02;;;;;;;-1.66;82.97;101472.51;3525830;78;21197;-73
2021/12/12 19:23:08;;;;;;;86.33;38.00;;;;;;;-1.70;82.79;101475.95;3519375;78;21434;-72
2021/12/12 19:27:59;;;;;;;85.55;40.52;;;;;;;-1.76;82.54;101468.72;3556498;78;20970;-73
2021/12/12 19:32:51;;;;;;;83.80;38.70;;;;;;;-1.84;82.60;101468.49;3551444;78;20919;-73
2021/12/12 19:37:48;;;;;;;84.10;37.05;;;;;;;-1.87;82.58;101461.91;3581952;78;21129;-73
2021/12/12 19:42:43;;;;;;;88.12;38.08;;;;;;;-1.89;82.71;101455.80;3571339;78;20997;-74
2021/12/12 19:47:37;;;;;;;82.85;36.63;;;;;;;-1.84;82.80;101472.31;3536419;78;20953;-73
2021/12/12 19:52:33;;;;;;;68.78;31.52;;;;;;;-1.89;82.52;101483.84;3529793;78;20977;-73
2021/12/12 19:57:27;;;;;;;74.10;33.00;;;;;;;-1.88;82.53;101491.97;3566621;78;20992;-73
2021/12/12 20:02:19;;;;;;;80.85;35.33;;;;;;;-1.93;82.37;101493.78;3553376;78;21163;-74
2021/12/12 20:07:15;;;;;;;77.80;34.13;;;;;;;-1.93;82.58;101496.33;3513646;78;21069;-74
2021/12/12 20:12:14;;;;;;;65.95;31.65;;;;;;;-1.84;82.79;101492.71;3562017;78;20971;-73
2021/12/12 20:17:24;;;;;;;71.53;32.05;;;;;;;-1.83;82.45;101493.23;3452848;79;21439;-73
2021/12/12 20:22:23;;;;;;;64.65;29.48;;;;;;;-1.83;82.45;101493.23;3585423;77;20952;-74
2021/12/12 20:27:20;;;;;;;63.38;30.82;;;;;;;-1.89;82.23;101493.64;3491526;80;21126;-74
2021/12/12 20:32:15;;;;;;;69.43;30.00;;;;;;;-1.92;82.28;101499.36;3498297;80;21000;-73
2021/12/12 20:37:10;;;;;;;77.53;33.00;;;;;;;-1.93;82.34;101503.98;3555938;78;20978;-73
2021/12/12 20:42:28;;;;;;;76.67;35.33;;;;;;;-1.90;82.44;101504.98;3509417;80;21430;-73
2021/12/12 20:47:30;;;;;;;74.92;33.92;;;;;;;-1.87;82.58;101509.06;3568374;78;20964;-73
2021/12/12 20:52:38;;;;;;;67.80;31.15;;;;;;;-1.88;82.72;101504.33;3573428;78;21459;-73
2021/12/12 20:57:41;;;;;;;74.47;31.25;;;;;;;-1.85;82.69;101494.77;3563124;78;20914;-73
2021/12/12 21:02:40;;;;;;;78.65;32.50;;;;;;;-1.85;82.79;101504.97;3547227;78;21478;-72
2021/12/12 21:07:34;;;;;;;72.33;32.43;;;;;;;-1.87;82.56;101500.14;3493579;79;20985;-72
2021/12/12 21:12:33;;;;;;;85.65;32.38;;;;;;;-1.99;82.89;101474.55;3451809;79;20959;-73
2021/12/12 21:17:29;;;;;;;70.35;31.82;;;;;;;-1.99;82.89;101474.55;3518662;78;21881;-73
2021/12/12 21:22:40;;;;;;;75.32;33.20;;;;;;;-1.96;82.63;101478.23;3551780;78;21001;-73
2021/12/12 21:27:36;;;;;;;79.30;31.75;;;;;;;-2.02;82.52;101473.94;3586777;77;21851;-72
2021/12/12 21:32:21;;;;;;;74.40;33.18;;;;;;;-2.03;82.64;101478.52;3572448;77;20904;-73
2021/12/12 21:37:18;;;;;;;88.07;34.75;;;;;;;-2.05;82.73;101487.70;3594275;77;21859;-72
2021/12/12 21:42:35;;;;;;;83.62;35.30;;;;;;;-2.01;82.93;101488.45;3570041;77;21092;-73
2021/12/12 21:47:44;;;;;;;81.13;35.80;;;;;;;-1.96;83.14;101502.45;3558374;77;20962;-73
2021/12/12 21:52:58;;;;;;;79.35;34.33;;;;;;;-1.90;83.12;101501.16;3522396;78;20928;-72
2021/12/12 21:57:49;;;;;;;81.53;35.35;;;;;;;-1.93;82.89;101496.33;3533731;79;21014;-73
2021/12/12 22:02:45;;;;;;;77.75;33.18;;;;;;;-1.95;82.88;101502.05;3476572;78;21503;-73
2021/12/12 22:07:38;;;;;;;;;;;;;;;-1.96;82.99;101505.39;3495154;78;21131;-74
2021/12/12 22:12:36;;;;;;;69.62;31.50;;;;;;;-1.97;83.02;101500.69;3533791;78;20365;-73
2021/12/12 22:17:43;;;;;;;87.03;34.90;;;;;;;-1.98;82.92;101497.63;3493941;79;20988;-73
2021/12/12 22:22:40;;;;;;;85.87;37.30;;;;;;;-1.97;83.20;101495.59;3546330;78;21183;-73
2021/12/12 22:27:39;;;;;;;84.87;36.23;;;;;;;-1.95;82.99;101490.23;3474640;80;20963;-73
2021/12/12 22:32:41;;;;;;;86.80;34.10;;;;;;;-1.97;83.03;101478.11;3461876;80;21091;-73
2021/12/12 22:37:34;;;;;;;78.85;31.68;;;;;;;-1.99;83.02;101470.34;3545861;78;20933;-73
2021/12/12 22:42:36;;;;;;;74.35;34.00;;;;;;;-1.97;83.22;101468.83;3489981;78;20937;-73
2021/12/12 22:47:30;;;;;;;91.30;37.13;;;;;;;-1.96;83.26;101470.98;3544852;78;20919;-73
2021/12/12 22:52:30;;;;;;;90.55;34.83;;;;;;;-1.97;83.16;101456.09;3565206;78;20985;-73
2021/12/12 22:57:36;;;;;;;86.95;35.13;;;;;;;-1.96;83.27;101459.12;3537111;78;21177;-73
2021/12/12 23:02:33;;;;;;;92.60;35.10;;;;;;;-1.96;83.31;101467.16;3538538;78;21551;-74
2021/12/12 23:07:38;;;;;;;95.20;39.42;;;;;;;-1.96;83.28;101458.23;3531129;78;20922;-73